Time;durP1;ratioP1;P1;durP2;ratioP2;P2;SDS_P1;SDS_P2;PMS_P1;PMS_P2;Temp;Humidity;BMP_temperature;BMP_pressure;BME280_temperature;BME280_humidity;BME280_pressure;Samples;Min_cycle;Max_cycle;Signal;HPM_P1;HPM_P2
2022/04/15 00:01:22;;;;;;;7.65;3.95;;;9.70;99.90;;;;;;5055796;28;20044;-75
2022/04/15 00:03:50;;;;;;;7.50;4.43;;;9.70;99.90;;;;;;5061458;28;20067;-75
2022/04/15 00:06:16;;;;;;;10.13;4.60;;;9.60;99.90;;;;;;5052749;28;20033;-75
2022/04/15 00:08:42;;;;;;;11.20;5.05;;;9.70;99.90;;;;;;5058126;28;20056;-75
2022/04/15 00:11:07;;;;;;;10.73;5.30;;;9.60;99.90;;;;;;5066693;28;20060;-75
2022/04/15 00:13:34;;;;;;;7.72;5.05;;;9.60;99.90;;;;;;5064433;28;20416;-76
2022/04/15 00:16:01;;;;;;;9.65;5.53;;;9.60;99.90;;;;;;5047231;28;20036;-75
2022/04/15 00:18:26;;;;;;;11.68;5.35;;;9.60;99.90;;;;;;5047424;28;20097;-76
2022/04/15 00:20:53;;;;;;;9.55;5.63;;;9.70;99.90;;;;;;5054734;28;20033;-75
2022/04/15 00:23:21;;;;;;;8.02;5.20;;;9.60;99.90;;;;;;5056413;28;20047;-75
2022/04/15 00:25:46;;;;;;;8.93;5.03;;;9.60;99.90;;;;;;5060796;28;20108;-75
2022/04/15 00:28:12;;;;;;;9.80;5.35;;;9.60;99.90;;;;;;5067031;28;20027;-75
2022/04/15 00:30:37;;;;;;;11.02;5.40;;;9.60;99.90;;;;;;5051430;28;20368;-75
2022/04/15 00:33:03;;;;;;;13.88;5.45;;;9.70;99.90;;;;;;5050547;28;20143;-75
2022/04/15 00:35:29;;;;;;;10.20;5.25;;;9.60;99.90;;;;;;5051394;28;20033;-74
2022/04/15 00:37:54;;;;;;;11.50;5.10;;;9.50;99.90;;;;;;5048420;28;20039;-75
2022/04/15 00:40:20;;;;;;;10.10;4.85;;;9.50;99.90;;;;;;5050088;28;20031;-75
2022/04/15 00:42:46;;;;;;;10.02;5.13;;;9.50;99.90;;;;;;5036088;28;20127;-75
2022/04/15 00:45:12;;;;;;;8.23;4.93;;;9.50;99.90;;;;;;5061525;28;20021;-75
2022/04/15 00:47:50;;;;;;;8.10;4.60;;;9.60;99.90;;;;;;5058694;28;20637;-75
2022/04/15 00:50:17;;;;;;;8.98;5.03;;;9.60;99.90;;;;;;5059837;28;20024;-75
2022/04/15 00:52:46;;;;;;;9.55;5.05;;;9.60;99.90;;;;;;5049759;28;20030;-75
2022/04/15 00:55:13;;;;;;;9.90;4.35;;;9.60;99.90;;;;;;5049047;28;20111;-76
2022/04/15 00:57:44;;;;;;;10.18;5.35;;;9.50;99.90;;;;;;5067582;28;20055;-75
2022/04/15 01:00:13;;;;;;;9.75;5.20;;;9.50;99.90;;;;;;5064752;28;20032;-76
2022/04/15 01:02:39;;;;;;;8.25;3.85;;;9.40;99.90;;;;;;5040201;28;20036;-76
2022/04/15 01:05:07;;;;;;;10.85;4.80;;;9.50;99.90;;;;;;5035263;28;20043;-75
2022/04/15 01:07:36;;;;;;;7.95;4.63;;;9.50;99.90;;;;;;5021460;28;20112;-75
2022/04/15 01:10:05;;;;;;;7.20;3.85;;;9.50;99.90;;;;;;5037859;28;20398;-75
2022/04/15 01:12:32;;;;;;;10.02;4.68;;;9.50;99.90;;;;;;5058017;28;20024;-75
2022/04/15 01:15:00;;;;;;;9.32;4.57;;;9.50;99.90;;;;;;5033409;28;20024;-75
2022/04/15 01:17:28;;;;;;;10.50;4.30;;;9.60;99.90;;;;;;5068068;28;20059;-74
2022/04/15 01:19:54;;;;;;;11.25;4.75;;;9.60;99.90;;;;;;5083108;28;20139;-75
2022/04/15 01:22:23;;;;;;;8.57;4.93;;;9.60;99.90;;;;;;5066652;28;20567;-75
2022/04/15 01:24:50;;;;;;;7.70;4.22;;;9.60;99.90;;;;;;5063661;28;20353;-75
2022/04/15 01:27:47;;;;;;;10.85;4.82;;;9.60;99.90;;;;;;5062910;28;20124;-75
2022/04/15 01:30:21;;;;;;;7.82;4.72;;;9.40;99.90;;;;;;5048228;28;20041;-75
2022/04/15 01:32:48;;;;;;;8.77;4.80;;;9.40;99.90;;;;;;5053338;28;20037;-75
2022/04/15 01:35:16;;;;;;;6.97;4.55;;;9.40;99.90;;;;;;5039357;28;20048;-75
2022/04/15 01:37:43;;;;;;;7.35;4.10;;;9.40;99.90;;;;;;5040176;28;20043;-75
2022/04/15 01:40:10;;;;;;;9.00;4.93;;;9.50;99.90;;;;;;5048700;28;20024;-75
2022/04/15 01:42:39;;;;;;;11.15;4.80;;;9.40;99.90;;;;;;5042064;28;20401;-76
2022/04/15 01:45:06;;;;;;;8.48;5.40;;;9.40;99.90;;;;;;5024446;28;20115;-75
2022/04/15 01:47:32;;;;;;;8.35;4.68;;;9.50;99.90;;;;;;5081766;28;20035;-76
2022/04/15 01:49:58;;;;;;;8.55;4.60;;;9.40;99.90;;;;;;5036073;28;20020;-75
2022/04/15 01:52:24;;;;;;;7.80;5.05;;;9.40;99.90;;;;;;5066444;28;20420;-75
2022/04/15 01:54:50;;;;;;;10.75;6.00;;;9.40;99.90;;;;;;5071044;28;20024;-75
2022/04/15 01:57:16;;;;;;;12.63;6.10;;;9.50;99.90;;;;;;5054528;28;20103;-75
2022/04/15 01:59:42;;;;;;;13.20;5.80;;;9.50;99.90;;;;;;5067658;28;20043;-75
2022/04/15 02:02:09;;;;;;;11.25;6.25;;;9.40;99.90;;;;;;5024818;28;20025;-75
2022/04/15 02:04:35;;;;;;;11.45;6.70;;;9.40;99.90;;;;;;5071142;28;20646;-75
2022/04/15 02:07:01;;;;;;;13.20;6.38;;;9.30;99.90;;;;;;5067601;28;20056;-74
2022/04/15 02:09:27;;;;;;;11.88;6.50;;;9.30;99.90;;;;;;5062132;28;20076;-75
2022/04/15 02:11:53;;;;;;;11.13;6.72;;;9.30;99.90;;;;;;5052587;28;20046;-73
2022/04/15 02:14:19;;;;;;;12.45;6.53;;;9.40;99.90;;;;;;5064506;28;20074;-75
2022/04/15 02:16:46;;;;;;;15.02;7.13;;;9.40;99.90;;;;;;5052326;28;20042;-74
2022/04/15 02:19:12;;;;;;;10.57;6.95;;;9.30;99.90;;;;;;5051901;28;20025;-75
2022/04/15 02:21:38;;;;;;;11.55;7.30;;;9.30;99.90;;;;;;5068679;28;20082;-76
2022/04/15 02:24:05;;;;;;;14.10;7.45;;;9.40;99.90;;;;;;5037642;28;20036;-75
2022/04/15 02:26:30;;;;;;;16.65;8.07;;;9.40;99.90;;;;;;5051156;28;20032;-75
2022/04/15 02:28:56;;;;;;;14.15;7.50;;;9.40;99.90;;;;;;5048541;28;20025;-74
2022/04/15 02:31:22;;;;;;;21.83;7.63;;;9.30;99.90;;;;;;5067787;28;20108;-74
2022/04/15 02:33:47;;;;;;;12.73;7.13;;;9.30;99.90;;;;;;5053320;28;20063;-74
2022/04/15 02:36:13;;;;;;;11.30;6.32;;;9.40;99.90;;;;;;5066679;28;20125;-74
2022/04/15 02:38:39;;;;;;;11.82;6.68;;;9.40;99.90;;;;;;5041676;28;20492;-74
2022/04/15 02:41:05;;;;;;;12.10;6.57;;;9.40;99.90;;;;;;5073636;28;20032;-75
2022/04/15 02:43:32;;;;;;;12.70;6.88;;;9.40;99.90;;;;;;5046154;28;20386;-76
2022/04/15 02:46:09;;;;;;;16.65;7.68;;;9.40;99.90;;;;;;5062417;28;20040;-75
2022/04/15 02:48:35;;;;;;;13.27;7.10;;;9.40;99.90;;;;;;5068135;28;20097;-74
2022/04/15 02:51:02;;;;;;;12.02;6.30;;;9.40;99.90;;;;;;5050352;28;20530;-74
2022/04/15 02:53:29;;;;;;;13.55;6.38;;;9.30;99.90;;;;;;5065017;28;20421;-74
2022/04/15 02:55:55;;;;;;;11.38;6.25;;;9.30;99.90;;;;;;5069290;28;20506;-75
2022/04/15 02:58:21;;;;;;;9.98;5.72;;;9.30;99.90;;;;;;5070180;28;20067;-74
2022/04/15 03:00:48;;;;;;;10.48;5.95;;;9.40;99.90;;;;;;5054989;28;20499;-75
2022/04/15 03:03:14;;;;;;;7.75;5.15;;;9.30;99.90;;;;;;5054652;28;20921;-74
2022/04/15 03:05:40;;;;;;;10.57;5.18;;;9.30;99.90;;;;;;5049150;28;20037;-74
2022/04/15 03:08:06;;;;;;;9.50;5.63;;;9.20;99.90;;;;;;5062826;28;20036;-75
2022/04/15 03:10:32;;;;;;;9.48;6.30;;;9.30;99.90;;;;;;5036734;28;20044;-74
2022/04/15 03:12:58;;;;;;;11.82;6.35;;;9.30;99.90;;;;;;5054856;28;20114;-76
2022/04/15 03:15:24;;;;;;;12.18;6.90;;;9.30;99.90;;;;;;5070111;28;20044;-76
2022/04/15 03:17:49;;;;;;;9.25;7.03;;;9.30;99.90;;;;;;5053089;28;20094;-76
2022/04/15 03:20:15;;;;;;;11.82;7.05;;;9.20;99.90;;;;;;5057118;28;20086;-75
2022/04/15 03:22:42;;;;;;;10.77;7.68;;;9.20;99.90;;;;;;5083517;28;20021;-74
2022/04/15 03:25:12;;;;;;;12.98;7.88;;;9.20;99.90;;;;;;5055561;28;20029;-74
2022/04/15 03:27:38;;;;;;;10.55;6.82;;;9.20;99.90;;;;;;5035635;28;20066;-76
2022/04/15 03:30:04;;;;;;;13.60;7.72;;;9.10;99.90;;;;;;5069917;28;20457;-76
2022/04/15 03:32:30;;;;;;;11.13;7.25;;;9.20;99.90;;;;;;5070835;28;20081;-79
2022/04/15 03:34:57;;;;;;;13.43;8.05;;;9.20;99.90;;;;;;5042985;28;20418;-75
2022/04/15 03:37:24;;;;;;;11.10;7.72;;;9.20;99.90;;;;;;5069972;28;20025;-75
2022/04/15 03:39:50;;;;;;;15.27;7.75;;;9.30;99.90;;;;;;5051156;28;20527;-75
2022/04/15 03:42:16;;;;;;;14.07;7.82;;;9.10;99.90;;;;;;5050219;28;20029;-76
2022/04/15 03:44:42;;;;;;;11.25;7.15;;;9.20;99.90;;;;;;5039596;28;20112;-75
2022/04/15 03:47:07;;;;;;;15.00;8.45;;;9.10;99.90;;;;;;5070091;28;20103;-75
2022/04/15 03:49:34;;;;;;;15.55;8.95;;;9.20;99.90;;;;;;5051210;28;20370;-75
2022/04/15 03:52:00;;;;;;;12.02;7.68;;;9.10;99.90;;;;;;5052424;28;20024;-76
2022/04/15 03:54:26;;;;;;;15.98;10.13;;;9.00;99.90;;;;;;5066977;28;20086;-75
2022/04/15 03:56:52;;;;;;;21.70;11.23;;;9.10;99.90;;;;;;5049292;28;20020;-76
2022/04/15 03:59:18;;;;;;;20.25;11.57;;;9.10;99.90;;;;;;5052005;28;20381;-75
2022/04/15 04:01:44;;;;;;;20.10;10.35;;;9.00;99.90;;;;;;5066374;28;20053;-74
2022/04/15 04:04:09;;;;;;;18.17;11.30;;;9.00;99.90;;;;;;5043320;28;20037;-75
2022/04/15 04:06:35;;;;;;;18.33;12.30;;;9.10;99.90;;;;;;5023909;28;20515;-74
2022/04/15 04:09:01;;;;;;;20.75;12.77;;;9.10;99.90;;;;;;5065257;28;20032;-75
2022/04/15 04:11:26;;;;;;;25.05;13.77;;;9.20;99.90;;;;;;5051235;28;20028;-75
2022/04/15 04:13:52;;;;;;;24.58;13.90;;;9.10;99.90;;;;;;5063613;28;20029;-75
2022/04/15 04:16:18;;;;;;;25.80;14.50;;;9.20;99.90;;;;;;5047720;28;20025;-75
2022/04/15 04:18:45;;;;;;;27.90;16.63;;;9.20;99.90;;;;;;5066272;28;20029;-75
2022/04/15 04:21:11;;;;;;;27.02;14.93;;;9.20;99.90;;;;;;5062184;28;20036;-75
2022/04/15 04:23:37;;;;;;;28.05;15.30;;;9.20;99.90;;;;;;5055544;28;20062;-77
2022/04/15 04:26:04;;;;;;;34.15;17.38;;;9.30;99.90;;;;;;5040640;28;20715;-74
2022/04/15 04:28:30;;;;;;;26.55;16.20;;;9.30;99.90;;;;;;5067854;28;20029;-75
2022/04/15 04:30:56;;;;;;;31.85;16.75;;;9.20;99.90;;;;;;5068696;28;20032;-75
2022/04/15 04:33:22;;;;;;;26.92;16.17;;;9.20;99.90;;;;;;5049295;28;20518;-76
2022/04/15 04:35:49;;;;;;;29.83;16.35;;;9.20;99.90;;;;;;5062121;28;20369;-75
2022/04/15 04:38:15;;;;;;;32.38;16.52;;;9.20;99.90;;;;;;5058563;28;20020;-75
2022/04/15 04:40:42;;;;;;;30.92;16.45;;;9.20;99.90;;;;;;5048086;28;20174;-74
2022/04/15 04:43:09;;;;;;;30.25;16.75;;;9.20;99.90;;;;;;5049349;28;20060;-75
2022/04/15 04:45:36;;;;;;;34.08;17.30;;;9.30;99.90;;;;;;5049262;28;20037;-75
2022/04/15 04:48:02;;;;;;;28.17;17.08;;;9.30;99.90;;;;;;5048020;28;20032;-76
2022/04/15 04:50:29;;;;;;;33.00;17.30;;;9.30;99.90;;;;;;5040713;28;20036;-76
2022/04/15 04:52:56;;;;;;;32.60;16.67;;;9.20;99.90;;;;;;5044626;28;20048;-75
2022/04/15 04:55:21;;;;;;;27.05;16.38;;;9.20;99.90;;;;;;5050599;28;20033;-76
2022/04/15 04:57:47;;;;;;;29.58;15.70;;;9.30;99.90;;;;;;5031948;28;20036;-77
2022/04/15 05:00:15;;;;;;;26.42;15.23;;;9.30;99.90;;;;;;5047337;28;20044;-76
2022/04/15 05:02:41;;;;;;;26.90;15.48;;;9.30;99.90;;;;;;5061629;28;20052;-74
2022/04/15 05:05:08;;;;;;;29.15;15.93;;;9.30;99.90;;;;;;5060099;28;20021;-75
2022/04/15 05:07:34;;;;;;;31.05;16.17;;;9.30;99.90;;;;;;5047819;28;20367;-76
2022/04/15 05:09:59;;;;;;;28.77;14.55;;;9.20;99.90;;;;;;5050190;28;20024;-75
2022/04/15 05:12:25;;;;;;;27.77;13.98;;;9.20;99.90;;;;;;5032668;28;20101;-74
2022/04/15 05:14:51;;;;;;;22.70;14.00;;;9.30;99.90;;;;;;5049249;28;20273;-76
2022/04/15 05:17:17;;;;;;;28.33;15.15;;;9.30;99.90;;;;;;5060771;28;20024;-75
2022/04/15 05:19:44;;;;;;;27.48;14.18;;;9.30;99.90;;;;;;5041201;28;20111;-75
2022/04/15 05:22:10;;;;;;;26.52;15.32;;;9.30;99.90;;;;;;5047415;28;20032;-75
2022/04/15 05:24:36;;;;;;;25.67;13.80;;;9.30;99.90;;;;;;5048121;28;20032;-76
2022/04/15 05:27:01;;;;;;;26.02;14.52;;;9.30;99.90;;;;;;5050184;28;20043;-75
2022/04/15 05:29:27;;;;;;;30.08;15.27;;;9.30;99.90;;;;;;5056778;28;20279;-74
2022/04/15 05:31:53;;;;;;;28.42;14.90;;;9.40;99.90;;;;;;5059472;28;20206;-74
2022/04/15 05:34:18;;;;;;;26.88;14.88;;;9.40;99.90;;;;;;5059708;28;20029;-75
2022/04/15 05:36:45;;;;;;;29.45;15.52;;;9.40;99.90;;;;;;5041244;28;20107;-75
2022/04/15 05:39:10;;;;;;;32.15;16.40;;;9.40;99.90;;;;;;5044069;28;20033;-76
2022/04/15 05:41:36;;;;;;;32.67;16.67;;;9.40;99.90;;;;;;5079311;28;20115;-75
2022/04/15 05:44:03;;;;;;;34.22;18.10;;;9.40;99.90;;;;;;5066642;28;20059;-74
2022/04/15 05:46:30;;;;;;;37.97;19.33;;;9.40;99.90;;;;;;5067178;28;20036;-74
2022/04/15 05:48:56;;;;;;;41.17;18.77;;;9.40;99.90;;;;;;5050480;28;20035;-75
2022/04/15 05:51:21;;;;;;;47.30;20.73;;;9.40;99.90;;;;;;5032841;28;20408;-78
2022/04/15 05:53:47;;;;;;;43.38;19.75;;;9.40;99.90;;;;;;5030485;28;20435;-75
2022/04/15 05:56:13;;;;;;;44.47;20.80;;;9.40;99.90;;;;;;5071987;28;20072;-75
2022/04/15 05:58:40;;;;;;;41.58;21.40;;;9.30;99.90;;;;;;5038746;28;20063;-75
2022/04/15 06:01:09;;;;;;;39.20;19.40;;;9.40;99.90;;;;;;5032891;28;20091;-75
2022/04/15 06:03:37;;;;;;;45.15;22.40;;;9.40;99.90;;;;;;5049515;28;20036;-75
2022/04/15 06:06:04;;;;;;;38.60;20.70;;;9.50;99.90;;;;;;5067881;28;20028;-76
2022/04/15 06:08:30;;;;;;;44.67;20.38;;;9.50;99.90;;;;;;5066880;28;20045;-75
2022/04/15 06:10:56;;;;;;;38.35;20.10;;;9.60;99.90;;;;;;5061387;28;20056;-75
2022/04/15 06:13:22;;;;;;;37.35;19.67;;;9.60;99.90;;;;;;5065577;28;20421;-75
2022/04/15 06:15:53;;;;;;;45.80;21.73;;;9.60;99.90;;;;;;5046822;28;20028;-76
2022/04/15 06:18:24;;;;;;;37.22;18.75;;;9.60;99.90;;;;;;5064394;28;20107;-76
2022/04/15 06:20:50;;;;;;;39.50;20.00;;;9.50;99.90;;;;;;5060318;28;20039;-74
2022/04/15 06:23:17;;;;;;;38.40;18.42;;;9.50;99.90;;;;;;5042469;28;20052;-75
2022/04/15 06:25:44;;;;;;;40.25;19.15;;;9.50;99.90;;;;;;5036117;28;20078;-75
2022/04/15 06:28:10;;;;;;;43.95;19.15;;;9.60;99.90;;;;;;5047907;28;20041;-76
2022/04/15 06:30:36;;;;;;;39.28;17.98;;;9.60;99.90;;;;;;5048624;28;20031;-76
2022/04/15 06:33:02;;;;;;;39.50;19.23;;;9.60;99.90;;;;;;5068268;28;20059;-75
2022/04/15 06:35:28;;;;;;;37.33;17.83;;;9.60;99.90;;;;;;5068556;28;20077;-76
2022/04/15 06:37:53;;;;;;;34.35;18.65;;;9.60;99.90;;;;;;5045103;28;20037;-75
2022/04/15 06:40:19;;;;;;;39.22;19.75;;;9.70;99.90;;;;;;5040126;28;20017;-75
2022/04/15 06:42:45;;;;;;;35.75;19.38;;;9.80;99.90;;;;;;5061120;28;20039;-76
2022/04/15 06:45:13;;;;;;;39.55;17.90;;;9.70;99.90;;;;;;5052729;28;20028;-76
2022/04/15 06:47:39;;;;;;;38.85;17.80;;;9.70;99.90;;;;;;5053003;28;20048;-75
2022/04/15 06:50:06;;;;;;;30.63;16.83;;;9.70;99.90;;;;;;5051807;28;20021;-75
2022/04/15 06:52:31;;;;;;;38.95;18.50;;;9.70;99.90;;;;;;5050690;28;20102;-75
2022/04/15 06:54:57;;;;;;;38.17;17.55;;;9.70;99.90;;;;;;5047475;28;20059;-75
2022/04/15 06:57:23;;;;;;;34.28;17.77;;;9.70;99.90;;;;;;5052712;28;20143;-75
2022/04/15 06:59:48;;;;;;;39.13;18.80;;;9.80;99.90;;;;;;5052481;28;20553;-75
2022/04/15 07:02:14;;;;;;;40.13;17.52;;;9.80;99.90;;;;;;5069687;28;20033;-76
2022/04/15 07:04:40;;;;;;;30.88;16.98;;;9.80;99.90;;;;;;5065301;28;20060;-75
2022/04/15 07:07:06;;;;;;;32.60;15.52;;;9.80;99.90;;;;;;5060773;28;20036;-75
2022/04/15 07:09:31;;;;;;;29.17;15.52;;;9.80;99.90;;;;;;5063695;28;20043;-75
2022/04/15 07:11:57;;;;;;;35.13;16.45;;;9.80;99.90;;;;;;5045272;28;20086;-75
2022/04/15 07:14:23;;;;;;;29.85;16.30;;;9.90;99.90;;;;;;5064370;28;20562;-75
2022/04/15 07:16:49;;;;;;;31.58;15.13;;;9.90;99.90;;;;;;5050109;28;20037;-74
2022/04/15 07:19:15;;;;;;;35.15;16.33;;;9.90;99.90;;;;;;5085512;28;20028;-75
2022/04/15 07:21:43;;;;;;;31.60;16.00;;;9.90;99.90;;;;;;5052941;28;20357;-74
2022/04/15 07:24:09;;;;;;;33.03;16.52;;;10.00;99.90;;;;;;5063983;28;20107;-75
2022/04/15 07:26:34;;;;;;;39.10;17.05;;;10.00;99.90;;;;;;5033253;28;20393;-75
2022/04/15 07:29:00;;;;;;;29.90;15.75;;;10.10;99.90;;;;;;5040294;28;20033;-75
2022/04/15 07:31:26;;;;;;;35.72;16.90;;;10.10;99.90;;;;;;5060288;28;20441;-75
2022/04/15 07:33:52;;;;;;;29.52;16.42;;;10.20;99.90;;;;;;5044650;28;20064;-75
2022/04/15 07:37:02;;;;;;;32.55;18.25;;;10.20;99.90;;;;;;5051442;28;20028;-75
2022/04/15 07:39:09;;;;;;;33.08;15.93;;;10.20;99.90;;;;;;5061542;28;20046;-76
2022/04/15 07:41:36;;;;;;;39.13;17.20;;;10.20;99.90;;;;;;5071306;28;20024;-76
2022/04/15 07:44:10;;;;;;;37.13;17.83;;;10.20;99.90;;;;;;5092116;28;20028;-74
2022/04/15 07:46:42;;;;;;;32.67;18.15;;;10.20;99.90;;;;;;5047838;28;20047;-76
2022/04/15 07:49:08;;;;;;;35.50;18.65;;;10.20;99.90;;;;;;5060438;28;20035;-75
2022/04/15 07:51:37;;;;;;;33.53;17.27;;;10.10;99.90;;;;;;5039875;28;20036;-75
2022/04/15 07:54:04;;;;;;;34.72;17.17;;;10.10;99.90;;;;;;5040348;28;20039;-75
2022/04/15 07:56:30;;;;;;;34.75;17.50;;;10.00;99.90;;;;;;5063377;28;20028;-76
2022/04/15 07:58:55;;;;;;;33.97;16.90;;;10.00;99.90;;;;;;5048962;28;20086;-75
2022/04/15 08:01:22;;;;;;;33.28;17.30;;;10.00;99.90;;;;;;5063146;28;20071;-75
2022/04/15 08:03:49;;;;;;;29.63;15.38;;;10.10;99.90;;;;;;5047375;28;20039;-76
2022/04/15 08:06:15;;;;;;;26.70;12.82;;;10.20;99.90;;;;;;5050712;28;20404;-77
2022/04/15 08:08:41;;;;;;;23.77;12.75;;;10.40;99.90;;;;;;5044820;28;20044;-76
2022/04/15 08:11:07;;;;;;;20.35;11.55;;;10.40;99.90;;;;;;5042994;28;20020;-75
2022/04/15 08:13:32;;;;;;;20.92;12.18;;;10.50;99.90;;;;;;5047301;28;20028;-76
2022/04/15 08:15:59;;;;;;;18.58;12.02;;;10.50;99.90;;;;;;5067349;28;20388;-74
2022/04/15 08:18:24;;;;;;;21.25;11.98;;;10.50;99.90;;;;;;5069310;28;20036;-74
2022/04/15 08:20:52;;;;;;;20.83;12.07;;;10.50;99.90;;;;;;5050222;28;20389;-75
2022/04/15 08:23:18;;;;;;;19.50;11.18;;;10.50;99.90;;;;;;5047519;28;20032;-75
2022/04/15 08:25:44;;;;;;;19.75;12.50;;;10.40;99.90;;;;;;5059619;28;20059;-76
2022/04/15 08:28:11;;;;;;;22.23;12.60;;;10.40;99.90;;;;;;5051402;28;20062;-76
2022/04/15 08:30:38;;;;;;;19.70;12.25;;;10.40;99.90;;;;;;5033334;28;20063;-75
2022/04/15 08:33:07;;;;;;;20.08;12.60;;;10.50;99.90;;;;;;5046873;28;20052;-75
2022/04/15 08:35:34;;;;;;;18.60;11.68;;;10.50;99.90;;;;;;5048322;28;20046;-74
2022/04/15 08:38:00;;;;;;;21.70;12.30;;;10.50;99.90;;;;;;5055055;28;20033;-76
2022/04/15 08:40:31;;;;;;;22.77;12.27;;;10.60;99.90;;;;;;5036478;28;20036;-79
2022/04/15 08:42:57;;;;;;;17.92;12.07;;;10.70;99.90;;;;;;5030157;28;20032;-75
2022/04/15 08:45:25;;;;;;;22.55;13.27;;;10.80;99.90;;;;;;5022713;28;20123;-76
2022/04/15 08:47:59;;;;;;;22.13;12.50;;;10.90;99.90;;;;;;5079969;28;20024;-76
2022/04/15 08:50:26;;;;;;;22.35;14.00;;;10.90;99.90;;;;;;5038662;28;20055;-74
2022/04/15 08:52:53;;;;;;;21.98;13.73;;;10.90;99.90;;;;;;5059828;28;20023;-75
2022/04/15 08:55:21;;;;;;;22.35;14.13;;;11.00;99.90;;;;;;5034575;28;20016;-76
2022/04/15 08:57:50;;;;;;;37.42;16.30;;;11.10;99.90;;;;;;5060574;28;20032;-74
2022/04/15 09:00:16;;;;;;;18.77;12.25;;;11.30;99.90;;;;;;5055283;28;20086;-75
2022/04/15 09:02:42;;;;;;;18.48;11.88;;;11.30;99.90;;;;;;5035219;28;20020;-75
2022/04/15 09:05:09;;;;;;;20.55;13.40;;;11.20;99.90;;;;;;5037479;28;20081;-75
2022/04/15 09:07:36;;;;;;;23.42;13.77;;;11.10;99.90;;;;;;5069099;28;20373;-76
2022/04/15 09:10:04;;;;;;;20.45;13.38;;;11.00;99.90;;;;;;5062718;28;20399;-75
2022/04/15 09:12:30;;;;;;;19.50;12.30;;;10.90;99.90;;;;;;5053872;28;20087;-75
2022/04/15 09:15:08;;;;;;;22.13;12.73;;;10.90;99.90;;;;;;5040685;28;20021;-77
2022/04/15 09:17:52;;;;;;;20.00;13.32;;;10.90;99.90;;;;;;5055154;28;20028;-75
2022/04/15 09:20:19;;;;;;;23.92;14.43;;;10.90;99.90;;;;;;5064798;28;20472;-77
2022/04/15 09:22:45;;;;;;;22.35;13.57;;;10.90;99.90;;;;;;5046867;28;20044;-75
2022/04/15 09:25:12;;;;;;;22.05;14.43;;;10.80;99.90;;;;;;5057446;28;20021;-75
2022/04/15 09:27:40;;;;;;;26.65;15.65;;;10.80;99.90;;;;;;5037314;28;20493;-75
2022/04/15 09:30:07;;;;;;;21.52;13.23;;;10.80;99.90;;;;;;5056845;28;20033;-75
2022/04/15 09:32:33;;;;;;;21.40;11.43;;;11.00;99.90;;;;;;5056004;28;20027;-75
2022/04/15 09:35:05;;;;;;;23.17;14.00;;;11.30;99.90;;;;;;5046325;28;20028;-76
2022/04/15 09:37:44;;;;;;;25.40;14.38;;;11.40;99.90;;;;;;5049785;28;20028;-76
2022/04/15 09:40:25;;;;;;;22.73;14.05;;;11.30;99.90;;;;;;5032473;28;20033;-76
2022/04/15 09:42:56;;;;;;;21.80;14.63;;;11.20;99.90;;;;;;5045596;28;20508;-76
2022/04/15 09:45:25;;;;;;;24.55;15.23;;;11.10;99.90;;;;;;5065478;28;20017;-76
2022/04/15 09:47:57;;;;;;;20.77;12.57;;;10.90;99.90;;;;;;5033644;28;20059;-75
2022/04/15 09:50:28;;;;;;;25.58;14.32;;;10.90;99.90;;;;;;5035942;28;20032;-76
2022/04/15 09:53:05;;;;;;;20.95;13.15;;;11.20;99.90;;;;;;5044153;28;20040;-76
2022/04/15 09:55:31;;;;;;;23.77;14.63;;;11.20;99.90;;;;;;5066373;28;20211;-76
2022/04/15 09:58:03;;;;;;;24.50;14.43;;;11.30;99.90;;;;;;5048694;28;20116;-76
2022/04/15 10:00:30;;;;;;;27.20;15.05;;;11.20;99.90;;;;;;5048980;28;20097;-76
2022/04/15 10:02:57;;;;;;;24.73;14.27;;;11.20;99.90;;;;;;5027881;28;20120;-75
2022/04/15 10:05:23;;;;;;;22.42;14.30;;;11.20;99.90;;;;;;5012798;28;20036;-75
2022/04/15 10:07:49;;;;;;;24.15;14.90;;;11.10;99.90;;;;;;5060569;28;20029;-75
2022/04/15 10:10:16;;;;;;;22.55;13.77;;;11.10;99.90;;;;;;5062741;28;20089;-76
2022/04/15 10:12:43;;;;;;;23.65;15.65;;;11.10;99.90;;;;;;5047172;28;20025;-75
2022/04/15 10:15:10;;;;;;;22.30;14.68;;;11.20;99.90;;;;;;5066348;28;20017;-75
2022/04/15 10:17:39;;;;;;;24.65;14.55;;;11.10;99.90;;;;;;5065445;28;20024;-75
2022/04/15 10:20:06;;;;;;;22.52;13.43;;;11.20;99.90;;;;;;5065201;28;20056;-75
2022/04/15 10:22:34;;;;;;;22.48;14.25;;;11.20;99.90;;;;;;5026966;28;20033;-76
2022/04/15 10:25:00;;;;;;;19.17;12.23;;;11.30;99.90;;;;;;5067741;28;20504;-76
2022/04/15 10:27:30;;;;;;;24.40;13.82;;;11.40;99.90;;;;;;5059256;28;20085;-76
2022/04/15 10:30:09;;;;;;;23.63;14.30;;;11.50;99.90;;;;;;5049528;28;20024;-75
2022/04/15 10:32:49;;;;;;;23.90;13.98;;;11.50;99.90;;;;;;5066014;28;20021;-74
2022/04/15 10:35:28;;;;;;;21.45;13.00;;;11.50;99.90;;;;;;5064645;28;20097;-75
2022/04/15 10:38:11;;;;;;;24.00;14.27;;;11.50;99.90;;;;;;5064090;28;20103;-75
2022/04/15 10:40:37;;;;;;;23.70;15.02;;;11.50;99.90;;;;;;5039666;28;20032;-75
2022/04/15 10:43:19;;;;;;;22.52;14.57;;;11.40;99.90;;;;;;5061462;28;20062;-75
2022/04/15 10:45:45;;;;;;;24.60;14.82;;;11.40;99.90;;;;;;5055939;28;20071;-75
2022/04/15 10:48:11;;;;;;;22.33;13.52;;;11.30;99.90;;;;;;5044336;28;20028;-75
2022/04/15 10:50:40;;;;;;;27.67;16.42;;;11.30;99.90;;;;;;5051244;28;20504;-77
2022/04/15 10:53:17;;;;;;;26.48;14.73;;;11.30;99.90;;;;;;5067245;28;20029;-75
2022/04/15 10:55:48;;;;;;;24.25;15.05;;;11.30;99.90;;;;;;5061289;28;20025;-76
2022/04/15 10:58:15;;;;;;;23.45;14.27;;;11.40;99.90;;;;;;5048483;28;20472;-75
2022/04/15 11:03:31;;;;;;;19.90;13.60;;;11.30;99.90;;;;;;5049863;28;20036;-76
2022/04/15 11:06:04;;;;;;;22.48;14.38;;;11.20;99.90;;;;;;5045250;28;20509;-75
2022/04/15 11:08:45;;;;;;;25.08;14.73;;;11.20;99.90;;;;;;5079530;28;20527;-75
2022/04/15 11:11:11;;;;;;;25.52;14.90;;;11.20;99.90;;;;;;5033549;28;20028;-76
2022/04/15 11:13:39;;;;;;;22.80;14.40;;;11.20;99.90;;;;;;5062497;28;20423;-76
2022/04/15 11:16:14;;;;;;;25.50;13.68;;;11.20;99.90;;;;;;5048664;28;20028;-74
2022/04/15 11:18:43;;;;;;;23.30;14.52;;;11.10;99.90;;;;;;5063228;28;20048;-77
2022/04/15 11:21:23;;;;;;;25.20;13.85;;;11.20;99.90;;;;;;5068509;28;20100;-78
2022/04/15 11:23:51;;;;;;;27.10;15.02;;;11.10;99.90;;;;;;5030588;28;20494;-74
2022/04/15 11:26:19;;;;;;;27.90;15.15;;;11.10;99.90;;;;;;5048200;28;20025;-74
2022/04/15 11:28:46;;;;;;;22.77;13.95;;;11.00;99.90;;;;;;5064727;28;20042;-76
2022/04/15 11:31:24;;;;;;;27.35;15.35;;;10.90;99.90;;;;;;5064229;28;20040;-77
2022/04/15 11:33:50;;;;;;;29.25;14.85;;;10.90;99.90;;;;;;5058884;28;20029;-77
2022/04/15 11:36:22;;;;;;;24.95;15.05;;;10.80;99.90;;;;;;5066066;28;20442;-77
2022/04/15 11:38:49;;;;;;;23.65;13.40;;;10.90;99.90;;;;;;5067636;28;20025;-77
2022/04/15 11:41:22;;;;;;;23.73;12.68;;;10.90;99.90;;;;;;5054002;28;20075;-79
2022/04/15 11:44:04;;;;;;;23.20;13.48;;;11.00;99.90;;;;;;5050612;28;20036;-78
2022/04/15 11:46:36;;;;;;;28.10;13.90;;;11.00;99.90;;;;;;5064221;28;20032;-78
2022/04/15 11:49:04;;;;;;;22.95;13.30;;;10.90;99.90;;;;;;5050400;28;20039;-76
2022/04/15 11:51:30;;;;;;;21.23;12.02;;;11.00;99.90;;;;;;5068868;28;20403;-76
2022/04/15 11:53:57;;;;;;;23.60;13.00;;;11.00;99.90;;;;;;5046196;28;20020;-76
2022/04/15 11:56:26;;;;;;;21.23;12.27;;;11.00;99.90;;;;;;5061091;28;20033;-76
2022/04/15 11:58:52;;;;;;;19.60;11.65;;;11.00;99.90;;;;;;5027755;28;20344;-76
2022/04/15 12:01:31;;;;;;;23.33;13.30;;;11.00;99.90;;;;;;5059195;28;20607;-78
2022/04/15 12:03:58;;;;;;;21.17;12.95;;;11.00;99.90;;;;;;5050618;28;20025;-76
2022/04/15 12:06:23;;;;;;;22.83;13.73;;;11.00;99.90;;;;;;5051148;28;20033;-77
2022/04/15 12:08:50;;;;;;;19.95;11.88;;;11.10;99.90;;;;;;5049962;28;20029;-77
2022/04/15 12:11:22;;;;;;;21.02;11.55;;;11.10;99.90;;;;;;5049993;28;20040;-77
2022/04/15 12:13:52;;;;;;;19.40;11.40;;;11.10;99.90;;;;;;5033961;28;20056;-76
2022/04/15 12:16:18;;;;;;;22.20;13.73;;;11.10;99.90;;;;;;5048013;28;20063;-75
2022/04/15 12:18:45;;;;;;;22.55;12.70;;;11.10;99.90;;;;;;5051492;28;20129;-75
2022/04/15 12:21:10;;;;;;;20.58;11.50;;;11.10;99.90;;;;;;5063168;28;20025;-75
2022/04/15 12:23:36;;;;;;;20.48;10.52;;;11.00;99.90;;;;;;5063116;28;20511;-76
2022/04/15 12:26:06;;;;;;;19.38;11.52;;;11.10;99.90;;;;;;5036972;28;20406;-77
2022/04/15 12:31:33;;;;;;;21.77;11.52;;;11.10;99.90;;;;;;5061191;28;20233;-76
2022/04/15 12:34:00;;;;;;;19.30;10.63;;;11.10;99.90;;;;;;5050603;28;20020;-76
2022/04/15 12:36:39;;;;;;;19.33;10.63;;;11.20;99.90;;;;;;5050944;28;20028;-79
2022/04/15 12:39:05;;;;;;;16.08;9.88;;;11.10;99.90;;;;;;5068331;28;20496;-76
2022/04/15 12:41:48;;;;;;;18.50;10.55;;;11.10;99.90;;;;;;5044400;28;20039;-77
2022/04/15 12:44:27;;;;;;;16.45;9.40;;;11.10;99.90;;;;;;5051451;28;20033;-76
2022/04/15 12:47:02;;;;;;;15.75;9.07;;;11.10;99.90;;;;;;5069371;28;20526;-79